sensor_id;sensor_type;location;lat;lon;timestamp;temperature;humidity
69162;DHT22;56269;51.738;21.652;2022-08-19T00:00:48;17.93;99.99
69162;DHT22;56269;51.738;21.652;2022-08-19T00:03:16;17.91;99.99
69162;DHT22;56269;51.738;21.652;2022-08-19T00:05:42;17.91;99.99
69162;DHT22;56269;51.738;21.652;2022-08-19T00:08:08;17.89;99.99
69162;DHT22;56269;51.738;21.652;2022-08-19T00:10:34;17.82;99.99
69162;DHT22;56269;51.738;21.652;2022-08-19T00:13:00;17.80;99.99
69162;DHT22;56269;51.738;21.652;2022-08-19T00:15:26;17.79;99.99
69162;DHT22;56269;51.738;21.652;2022-08-19T00:17:52;17.72;99.99
69162;DHT22;56269;51.738;21.652;2022-08-19T00:20:20;17.76;99.99
69162;DHT22;56269;51.738;21.652;2022-08-19T00:22:46;17.63;99.99
69162;DHT22;56269;51.738;21.652;2022-08-19T00:25:15;17.73;99.99
69162;DHT22;56269;51.738;21.652;2022-08-19T00:27:41;17.69;99.99
69162;DHT22;56269;51.738;21.652;2022-08-19T00:30:07;17.69;99.99
69162;DHT22;56269;51.738;21.652;2022-08-19T00:32:36;17.63;99.99
69162;DHT22;56269;51.738;21.652;2022-08-19T00:35:02;17.56;99.99
69162;DHT22;56269;51.738;21.652;2022-08-19T00:37:29;17.56;99.99
69162;DHT22;56269;51.738;21.652;2022-08-19T00:39:55;17.57;99.99
69162;DHT22;56269;51.738;21.652;2022-08-19T00:42:22;17.49;99.99
69162;DHT22;56269;51.738;21.652;2022-08-19T00:44:48;17.43;99.99
69162;DHT22;56269;51.738;21.652;2022-08-19T00:47:16;17.39;99.99
69162;DHT22;56269;51.738;21.652;2022-08-19T00:49:50;17.40;99.99
69162;DHT22;56269;51.738;21.652;2022-08-19T00:52:26;17.38;99.99
69162;DHT22;56269;51.738;21.652;2022-08-19T00:54:55;17.31;99.99
69162;DHT22;56269;51.738;21.652;2022-08-19T00:57:32;17.35;99.99
69162;DHT22;56269;51.738;21.652;2022-08-19T01:00:00;17.34;99.99
69162;DHT22;56269;51.738;21.652;2022-08-19T01:02:27;17.29;99.99
69162;DHT22;56269;51.738;21.652;2022-08-19T01:04:54;17.28;99.99
69162;DHT22;56269;51.738;21.652;2022-08-19T01:07:20;17.19;99.99
69162;DHT22;56269;51.738;21.652;2022-08-19T01:09:46;17.14;99.99
69162;DHT22;56269;51.738;21.652;2022-08-19T01:12:13;17.11;99.99
69162;DHT22;56269;51.738;21.652;2022-08-19T01:14:40;17.10;99.99
69162;DHT22;56269;51.738;21.652;2022-08-19T01:17:10;17.08;99.99
69162;DHT22;56269;51.738;21.652;2022-08-19T01:19:39;17.49;99.99
69162;DHT22;56269;51.738;21.652;2022-08-19T01:24:40;17.75;99.99
69162;DHT22;56269;51.738;21.652;2022-08-19T01:27:07;17.77;99.99
69162;DHT22;56269;51.738;21.652;2022-08-19T01:29:33;17.69;99.99
69162;DHT22;56269;51.738;21.652;2022-08-19T01:32:00;17.65;99.99
69162;DHT22;56269;51.738;21.652;2022-08-19T01:34:26;17.66;99.99
69162;DHT22;56269;51.738;21.652;2022-08-19T01:36:53;17.53;99.99
69162;DHT22;56269;51.738;21.652;2022-08-19T01:39:22;17.55;99.99
69162;DHT22;56269;51.738;21.652;2022-08-19T01:41:50;17.57;99.99
69162;DHT22;56269;51.738;21.652;2022-08-19T01:44:17;17.57;99.99
69162;DHT22;56269;51.738;21.652;2022-08-19T01:46:47;17.63;99.99
69162;DHT22;56269;51.738;21.652;2022-08-19T01:49:14;17.76;99.99
69162;DHT22;56269;51.738;21.652;2022-08-19T01:51:40;17.86;99.99
69162;DHT22;56269;51.738;21.652;2022-08-19T01:54:09;17.90;99.99
69162;DHT22;56269;51.738;21.652;2022-08-19T01:56:35;17.89;99.99
69162;DHT22;56269;51.738;21.652;2022-08-19T01:59:05;17.82;99.99
69162;DHT22;56269;51.738;21.652;2022-08-19T02:01:34;17.67;99.99
69162;DHT22;56269;51.738;21.652;2022-08-19T02:04:00;17.65;99.99
69162;DHT22;56269;51.738;21.652;2022-08-19T02:06:29;17.52;99.99
69162;DHT22;56269;51.738;21.652;2022-08-19T02:08:55;17.66;99.99
69162;DHT22;56269;51.738;21.652;2022-08-19T02:11:28;17.62;99.99
69162;DHT22;56269;51.738;21.652;2022-08-19T02:13:54;17.66;99.99
69162;DHT22;56269;51.738;21.652;2022-08-19T02:16:21;17.69;99.99
69162;DHT22;56269;51.738;21.652;2022-08-19T02:18:47;17.61;99.99
69162;DHT22;56269;51.738;21.652;2022-08-19T02:21:16;17.77;99.99
69162;DHT22;56269;51.738;21.652;2022-08-19T02:23:45;17.77;99.99
69162;DHT22;56269;51.738;21.652;2022-08-19T02:26:12;17.83;99.99
69162;DHT22;56269;51.738;21.652;2022-08-19T02:28:40;17.76;99.99
69162;DHT22;56269;51.738;21.652;2022-08-19T02:31:14;17.97;99.99
69162;DHT22;56269;51.738;21.652;2022-08-19T02:33:41;17.87;99.99
69162;DHT22;56269;51.738;21.652;2022-08-19T02:36:09;17.76;99.99
69162;DHT22;56269;51.738;21.652;2022-08-19T02:38:35;17.57;99.99
69162;DHT22;56269;51.738;21.652;2022-08-19T02:41:05;17.61;99.99
69162;DHT22;56269;51.738;21.652;2022-08-19T02:43:33;17.61;99.99
69162;DHT22;56269;51.738;21.652;2022-08-19T02:46:23;17.63;99.99
69162;DHT22;56269;51.738;21.652;2022-08-19T02:48:52;17.87;99.99
69162;DHT22;56269;51.738;21.652;2022-08-19T02:51:22;17.82;99.99
69162;DHT22;56269;51.738;21.652;2022-08-19T02:53:48;17.66;99.99
69162;DHT22;56269;51.738;21.652;2022-08-19T02:56:15;17.75;99.99
69162;DHT22;56269;51.738;21.652;2022-08-19T02:58:42;17.70;99.99
69162;DHT22;56269;51.738;21.652;2022-08-19T03:01:09;17.61;99.99
69162;DHT22;56269;51.738;21.652;2022-08-19T03:03:37;17.67;99.99
69162;DHT22;56269;51.738;21.652;2022-08-19T03:06:12;17.86;99.99
69162;DHT22;56269;51.738;21.652;2022-08-19T03:08:41;17.76;99.99
69162;DHT22;56269;51.738;21.652;2022-08-19T03:11:13;17.69;99.99
69162;DHT22;56269;51.738;21.652;2022-08-19T03:13:39;17.67;99.99
69162;DHT22;56269;51.738;21.652;2022-08-19T03:16:05;17.72;99.99
69162;DHT22;56269;51.738;21.652;2022-08-19T03:18:31;17.97;99.99
69162;DHT22;56269;51.738;21.652;2022-08-19T03:20:57;17.90;99.99
69162;DHT22;56269;51.738;21.652;2022-08-19T03:23:23;17.85;99.99
69162;DHT22;56269;51.738;21.652;2022-08-19T03:25:51;17.79;99.99
69162;DHT22;56269;51.738;21.652;2022-08-19T03:28:17;17.77;99.99
69162;DHT22;56269;51.738;21.652;2022-08-19T03:30:59;17.66;99.99
69162;DHT22;56269;51.738;21.652;2022-08-19T03:33:26;17.55;99.99
69162;DHT22;56269;51.738;21.652;2022-08-19T03:36:14;17.53;99.99
69162;DHT22;56269;51.738;21.652;2022-08-19T03:38:42;17.69;99.99
69162;DHT22;56269;51.738;21.652;2022-08-19T03:41:12;17.70;99.99
69162;DHT22;56269;51.738;21.652;2022-08-19T03:43:40;17.73;99.99
69162;DHT22;56269;51.738;21.652;2022-08-19T03:46:09;17.86;99.99
69162;DHT22;56269;51.738;21.652;2022-08-19T03:48:37;17.86;99.99
69162;DHT22;56269;51.738;21.652;2022-08-19T03:51:04;17.85;99.99
69162;DHT22;56269;51.738;21.652;2022-08-19T03:53:32;17.79;99.99
69162;DHT22;56269;51.738;21.652;2022-08-19T03:55:58;17.83;99.99
69162;DHT22;56269;51.738;21.652;2022-08-19T03:58:26;17.79;99.99
69162;DHT22;56269;51.738;21.652;2022-08-19T04:00:55;18.06;99.99
69162;DHT22;56269;51.738;21.652;2022-08-19T04:03:23;18.20;99.99
69162;DHT22;56269;51.738;21.652;2022-08-19T04:05:50;18.17;99.99
69162;DHT22;56269;51.738;21.652;2022-08-19T04:08:16;18.14;99.99
69162;DHT22;56269;51.738;21.652;2022-08-19T04:10:47;18.45;99.99
69162;DHT22;56269;51.738;21.652;2022-08-19T04:13:14;18.48;99.99
69162;DHT22;56269;51.738;21.652;2022-08-19T04:15:42;18.67;99.84
69162;DHT22;56269;51.738;21.652;2022-08-19T04:18:09;18.61;99.91
69162;DHT22;56269;51.738;21.652;2022-08-19T04:20:43;18.65;99.87
69162;DHT22;56269;51.738;21.652;2022-08-19T04:23:11;18.61;99.99
69162;DHT22;56269;51.738;21.652;2022-08-19T04:25:39;18.67;99.99
69162;DHT22;56269;51.738;21.652;2022-08-19T04:28:07;18.99;98.70
69162;DHT22;56269;51.738;21.652;2022-08-19T04:30:45;19.10;98.24
69162;DHT22;56269;51.738;21.652;2022-08-19T04:33:14;19.20;98.13
69162;DHT22;56269;51.738;21.652;2022-08-19T04:35:44;19.26;97.87
69162;DHT22;56269;51.738;21.652;2022-08-19T04:38:14;19.37;97.52
69162;DHT22;56269;51.738;21.652;2022-08-19T04:40:45;19.40;98.13
69162;DHT22;56269;51.738;21.652;2022-08-19T04:43:31;19.61;97.08
69162;DHT22;56269;51.738;21.652;2022-08-19T04:45:58;19.70;97.10
69162;DHT22;56269;51.738;21.652;2022-08-19T04:48:24;19.77;97.07
69162;DHT22;56269;51.738;21.652;2022-08-19T04:50:55;19.98;95.87
69162;DHT22;56269;51.738;21.652;2022-08-19T04:53:25;20.26;94.98
69162;DHT22;56269;51.738;21.652;2022-08-19T04:55:52;20.59;93.84
69162;DHT22;56269;51.738;21.652;2022-08-19T04:58:18;20.92;92.70
69162;DHT22;56269;51.738;21.652;2022-08-19T05:00:44;21.33;91.06
69162;DHT22;56269;51.738;21.652;2022-08-19T05:03:10;21.85;89.21
69162;DHT22;56269;51.738;21.652;2022-08-19T05:05:40;22.42;86.97
69162;DHT22;56269;51.738;21.652;2022-08-19T05:08:06;22.87;88.08
69162;DHT22;56269;51.738;21.652;2022-08-19T05:10:36;23.17;85.15
69162;DHT22;56269;51.738;21.652;2022-08-19T05:13:03;23.54;84.28
69162;DHT22;56269;51.738;21.652;2022-08-19T05:15:29;23.77;85.11
69162;DHT22;56269;51.738;21.652;2022-08-19T05:17:55;24.07;83.58
69162;DHT22;56269;51.738;21.652;2022-08-19T05:20:40;24.13;81.54
69162;DHT22;56269;51.738;21.652;2022-08-19T05:23:50;24.37;80.78
69162;DHT22;56269;51.738;21.652;2022-08-19T05:26:17;24.38;79.71
69162;DHT22;56269;51.738;21.652;2022-08-19T05:28:43;24.37;80.56
69162;DHT22;56269;51.738;21.652;2022-08-19T05:31:08;24.46;80.23
69162;DHT22;56269;51.738;21.652;2022-08-19T05:33:35;24.27;79.56
69162;DHT22;56269;51.738;21.652;2022-08-19T05:36:01;24.26;80.56
69162;DHT22;56269;51.738;21.652;2022-08-19T05:38:28;24.33;80.08
69162;DHT22;56269;51.738;21.652;2022-08-19T05:40:55;24.31;79.61
69162;DHT22;56269;51.738;21.652;2022-08-19T05:43:21;24.36;79.46
69162;DHT22;56269;51.738;21.652;2022-08-19T05:45:47;24.65;79.69
69162;DHT22;56269;51.738;21.652;2022-08-19T05:48:14;24.98;78.04
69162;DHT22;56269;51.738;21.652;2022-08-19T05:50:41;25.30;78.19
69162;DHT22;56269;51.738;21.652;2022-08-19T05:53:07;25.66;76.42
69162;DHT22;56269;51.738;21.652;2022-08-19T05:55:35;25.90;75.52
69162;DHT22;56269;51.738;21.652;2022-08-19T05:58:04;26.48;76.09
69162;DHT22;56269;51.738;21.652;2022-08-19T06:00:30;26.53;72.13
69162;DHT22;56269;51.738;21.652;2022-08-19T06:02:56;26.51;73.15
69162;DHT22;56269;51.738;21.652;2022-08-19T06:05:25;26.31;74.72
69162;DHT22;56269;51.738;21.652;2022-08-19T06:07:50;26.37;75.24
69162;DHT22;56269;51.738;21.652;2022-08-19T06:10:17;26.35;74.84
69162;DHT22;56269;51.738;21.652;2022-08-19T06:12:42;26.44;74.80
69162;DHT22;56269;51.738;21.652;2022-08-19T06:15:11;26.38;73.69
69162;DHT22;56269;51.738;21.652;2022-08-19T06:17:38;26.21;74.36
69162;DHT22;56269;51.738;21.652;2022-08-19T06:20:07;26.28;74.36
69162;DHT22;56269;51.738;21.652;2022-08-19T06:22:37;26.35;74.65
69162;DHT22;56269;51.738;21.652;2022-08-19T06:25:04;26.40;74.30
69162;DHT22;56269;51.738;21.652;2022-08-19T06:27:31;26.58;72.95
69162;DHT22;56269;51.738;21.652;2022-08-19T06:29:58;26.83;72.08
69162;DHT22;56269;51.738;21.652;2022-08-19T06:32:24;26.71;74.14
69162;DHT22;56269;51.738;21.652;2022-08-19T06:34:50;26.95;72.63
69162;DHT22;56269;51.738;21.652;2022-08-19T06:37:16;27.40;72.50
69162;DHT22;56269;51.738;21.652;2022-08-19T06:39:43;27.36;71.72
69162;DHT22;56269;51.738;21.652;2022-08-19T06:42:11;27.53;70.78
69162;DHT22;56269;51.738;21.652;2022-08-19T06:44:41;27.84;71.76
69162;DHT22;56269;51.738;21.652;2022-08-19T06:47:09;27.63;69.95
69162;DHT22;56269;51.738;21.652;2022-08-19T06:49:35;27.94;70.37
69162;DHT22;56269;51.738;21.652;2022-08-19T06:52:03;28.21;70.15
69162;DHT22;56269;51.738;21.652;2022-08-19T06:54:29;28.26;68.53
69162;DHT22;56269;51.738;21.652;2022-08-19T06:56:56;28.04;68.27
69162;DHT22;56269;51.738;21.652;2022-08-19T06:59:23;28.00;67.41
69162;DHT22;56269;51.738;21.652;2022-08-19T07:01:56;28.31;68.78
69162;DHT22;56269;51.738;21.652;2022-08-19T07:04:28;28.53;67.12
69162;DHT22;56269;51.738;21.652;2022-08-19T07:07:17;29.17;66.72
69162;DHT22;56269;51.738;21.652;2022-08-19T07:09:44;29.21;66.37
69162;DHT22;56269;51.738;21.652;2022-08-19T07:12:12;29.17;65.64
69162;DHT22;56269;51.738;21.652;2022-08-19T07:14:41;29.51;65.75
69162;DHT22;56269;51.738;21.652;2022-08-19T07:17:09;29.55;65.00
69162;DHT22;56269;51.738;21.652;2022-08-19T07:19:37;29.55;64.51
69162;DHT22;56269;51.738;21.652;2022-08-19T07:22:05;29.48;64.02
69162;DHT22;56269;51.738;21.652;2022-08-19T07:24:32;29.90;64.45
69162;DHT22;56269;51.738;21.652;2022-08-19T07:27:01;29.75;64.33
69162;DHT22;56269;51.738;21.652;2022-08-19T07:29:30;29.34;63.88
69162;DHT22;56269;51.738;21.652;2022-08-19T07:31:58;28.99;64.52
69162;DHT22;56269;51.738;21.652;2022-08-19T07:34:26;28.87;63.94
69162;DHT22;56269;51.738;21.652;2022-08-19T07:36:53;29.08;64.03
69162;DHT22;56269;51.738;21.652;2022-08-19T07:39:26;29.24;64.30
69162;DHT22;56269;51.738;21.652;2022-08-19T07:41:54;29.21;63.88
69162;DHT22;56269;51.738;21.652;2022-08-19T07:44:21;29.57;63.50
69162;DHT22;56269;51.738;21.652;2022-08-19T07:46:51;29.57;62.85
69162;DHT22;56269;51.738;21.652;2022-08-19T07:49:18;29.48;63.66
69162;DHT22;56269;51.738;21.652;2022-08-19T07:51:54;29.43;62.51
69162;DHT22;56269;51.738;21.652;2022-08-19T07:54:23;29.35;63.00
69162;DHT22;56269;51.738;21.652;2022-08-19T07:56:49;29.35;62.28
69162;DHT22;56269;51.738;21.652;2022-08-19T07:59:17;29.27;63.60
69162;DHT22;56269;51.738;21.652;2022-08-19T08:01:43;29.53;63.81
69162;DHT22;56269;51.738;21.652;2022-08-19T08:04:10;29.58;62.74
69162;DHT22;56269;51.738;21.652;2022-08-19T08:06:55;29.75;61.84
69162;DHT22;56269;51.738;21.652;2022-08-19T08:09:41;29.47;62.09
69162;DHT22;56269;51.738;21.652;2022-08-19T08:12:12;29.54;62.21
69162;DHT22;56269;51.738;21.652;2022-08-19T08:17:10;30.36;60.99
69162;DHT22;56269;51.738;21.652;2022-08-19T08:19:37;30.47;61.64
69162;DHT22;56269;51.738;21.652;2022-08-19T08:22:03;30.59;60.00
69162;DHT22;56269;51.738;21.652;2022-08-19T08:24:33;30.63;60.68
69162;DHT22;56269;51.738;21.652;2022-08-19T08:27:00;30.52;59.76
69162;DHT22;56269;51.738;21.652;2022-08-19T08:29:28;30.44;61.49
69162;DHT22;56269;51.738;21.652;2022-08-19T08:31:55;30.33;61.72
69162;DHT22;56269;51.738;21.652;2022-08-19T08:34:22;30.77;61.84
69162;DHT22;56269;51.738;21.652;2022-08-19T08:36:48;30.87;60.60
69162;DHT22;56269;51.738;21.652;2022-08-19T08:39:16;31.04;60.51
69162;DHT22;56269;51.738;21.652;2022-08-19T08:44:31;30.37;60.78
69162;DHT22;56269;51.738;21.652;2022-08-19T08:47:10;30.52;61.20
69162;DHT22;56269;51.738;21.652;2022-08-19T08:49:48;30.50;61.23
69162;DHT22;56269;51.738;21.652;2022-08-19T08:52:31;30.66;62.08
69162;DHT22;56269;51.738;21.652;2022-08-19T08:55:05;30.90;60.63
69162;DHT22;56269;51.738;21.652;2022-08-19T09:00:18;30.76;60.35
69162;DHT22;56269;51.738;21.652;2022-08-19T09:02:45;30.80;59.63
69162;DHT22;56269;51.738;21.652;2022-08-19T09:05:11;31.25;59.33
69162;DHT22;56269;51.738;21.652;2022-08-19T09:08:05;31.32;57.50
69162;DHT22;56269;51.738;21.652;2022-08-19T09:10:43;31.29;56.43
69162;DHT22;56269;51.738;21.652;2022-08-19T09:13:30;31.07;57.53
69162;DHT22;56269;51.738;21.652;2022-08-19T09:16:06;31.28;56.68
69162;DHT22;56269;51.738;21.652;2022-08-19T09:18:40;31.62;56.97
69162;DHT22;56269;51.738;21.652;2022-08-19T09:21:07;31.37;56.23
69162;DHT22;56269;51.738;21.652;2022-08-19T09:23:46;31.25;56.16
69162;DHT22;56269;51.738;21.652;2022-08-19T09:26:15;31.46;56.31
69162;DHT22;56269;51.738;21.652;2022-08-19T09:28:43;31.52;56.17
69162;DHT22;56269;51.738;21.652;2022-08-19T09:31:11;31.76;57.26
69162;DHT22;56269;51.738;21.652;2022-08-19T09:33:37;32.03;55.37
69162;DHT22;56269;51.738;21.652;2022-08-19T09:36:06;32.09;55.06
69162;DHT22;56269;51.738;21.652;2022-08-19T09:38:33;32.31;54.57
69162;DHT22;56269;51.738;21.652;2022-08-19T09:41:09;32.40;54.72
69162;DHT22;56269;51.738;21.652;2022-08-19T09:43:37;32.51;54.50
69162;DHT22;56269;51.738;21.652;2022-08-19T09:46:04;32.53;55.09
69162;DHT22;56269;51.738;21.652;2022-08-19T09:48:32;32.51;53.34
69162;DHT22;56269;51.738;21.652;2022-08-19T09:51:04;32.39;54.21
69162;DHT22;56269;51.738;21.652;2022-08-19T09:53:30;32.70;55.78
69162;DHT22;56269;51.738;21.652;2022-08-19T09:55:56;33.26;53.94
69162;DHT22;56269;51.738;21.652;2022-08-19T09:58:22;32.60;54.00
69162;DHT22;56269;51.738;21.652;2022-08-19T10:00:57;32.48;55.05
69162;DHT22;56269;51.738;21.652;2022-08-19T10:03:25;32.53;53.45
69162;DHT22;56269;51.738;21.652;2022-08-19T10:05:51;32.61;53.04
69162;DHT22;56269;51.738;21.652;2022-08-19T10:08:25;32.71;52.36
69162;DHT22;56269;51.738;21.652;2022-08-19T10:10:52;32.64;52.37
69162;DHT22;56269;51.738;21.652;2022-08-19T10:13:20;32.64;52.68
69162;DHT22;56269;51.738;21.652;2022-08-19T10:15:48;32.89;49.39
69162;DHT22;56269;51.738;21.652;2022-08-19T10:18:18;32.77;49.72
69162;DHT22;56269;51.738;21.652;2022-08-19T10:20:49;32.72;52.15
69162;DHT22;56269;51.738;21.652;2022-08-19T10:23:17;33.08;50.45
69162;DHT22;56269;51.738;21.652;2022-08-19T10:25:43;33.07;50.71
69162;DHT22;56269;51.738;21.652;2022-08-19T10:28:09;32.89;49.52
69162;DHT22;56269;51.738;21.652;2022-08-19T10:30:39;32.71;49.00
69162;DHT22;56269;51.738;21.652;2022-08-19T10:33:05;33.48;49.87
69162;DHT22;56269;51.738;21.652;2022-08-19T10:35:32;33.23;49.36
69162;DHT22;56269;51.738;21.652;2022-08-19T10:37:58;32.89;50.03
69162;DHT22;56269;51.738;21.652;2022-08-19T10:40:26;32.75;50.54
69162;DHT22;56269;51.738;21.652;2022-08-19T10:42:56;32.94;48.85
69162;DHT22;56269;51.738;21.652;2022-08-19T10:45:23;32.65;49.47
69162;DHT22;56269;51.738;21.652;2022-08-19T10:47:52;32.45;50.19
69162;DHT22;56269;51.738;21.652;2022-08-19T10:50:18;32.50;50.00
69162;DHT22;56269;51.738;21.652;2022-08-19T10:53:05;33.01;50.59
69162;DHT22;56269;51.738;21.652;2022-08-19T10:55:34;32.99;49.79
69162;DHT22;56269;51.738;21.652;2022-08-19T10:58:20;33.05;49.45
69162;DHT22;56269;51.738;21.652;2022-08-19T11:00:58;32.60;50.03
69162;DHT22;56269;51.738;21.652;2022-08-19T11:03:25;32.99;50.11
69162;DHT22;56269;51.738;21.652;2022-08-19T11:06:00;33.23;49.56
69162;DHT22;56269;51.738;21.652;2022-08-19T11:08:27;33.36;48.51
69162;DHT22;56269;51.738;21.652;2022-08-19T11:10:54;33.01;49.52
69162;DHT22;56269;51.738;21.652;2022-08-19T11:13:23;33.08;48.87
69162;DHT22;56269;51.738;21.652;2022-08-19T11:16:00;33.18;48.69
69162;DHT22;56269;51.738;21.652;2022-08-19T11:18:27;33.21;48.67
69162;DHT22;56269;51.738;21.652;2022-08-19T11:20:53;32.85;49.67
69162;DHT22;56269;51.738;21.652;2022-08-19T11:23:19;33.01;49.85
69162;DHT22;56269;51.738;21.652;2022-08-19T11:25:46;32.88;48.50
69162;DHT22;56269;51.738;21.652;2022-08-19T11:28:12;32.85;48.09
69162;DHT22;56269;51.738;21.652;2022-08-19T11:30:39;32.92;49.15
69162;DHT22;56269;51.738;21.652;2022-08-19T11:33:05;33.19;48.56
69162;DHT22;56269;51.738;21.652;2022-08-19T11:35:31;33.32;46.70
69162;DHT22;56269;51.738;21.652;2022-08-19T11:37:58;33.29;47.67
69162;DHT22;56269;51.738;21.652;2022-08-19T11:40:26;32.98;48.29
69162;DHT22;56269;51.738;21.652;2022-08-19T11:42:53;33.14;48.37
69162;DHT22;56269;51.738;21.652;2022-08-19T11:45:27;33.21;47.73
69162;DHT22;56269;51.738;21.652;2022-08-19T11:47:53;33.25;47.81
69162;DHT22;56269;51.738;21.652;2022-08-19T11:50:20;33.30;46.01
69162;DHT22;56269;51.738;21.652;2022-08-19T11:52:46;33.25;47.29
69162;DHT22;56269;51.738;21.652;2022-08-19T11:55:13;33.36;47.70
69162;DHT22;56269;51.738;21.652;2022-08-19T11:57:39;33.33;47.22
69162;DHT22;56269;51.738;21.652;2022-08-19T12:00:07;33.26;46.92
69162;DHT22;56269;51.738;21.652;2022-08-19T12:02:36;33.35;46.44
69162;DHT22;56269;51.738;21.652;2022-08-19T12:05:03;33.43;45.69
69162;DHT22;56269;51.738;21.652;2022-08-19T12:07:29;34.01;46.26
69162;DHT22;56269;51.738;21.652;2022-08-19T12:09:59;34.20;46.32
69162;DHT22;56269;51.738;21.652;2022-08-19T12:12:26;34.10;46.86
69162;DHT22;56269;51.738;21.652;2022-08-19T12:14:53;34.13;45.69
69162;DHT22;56269;51.738;21.652;2022-08-19T12:17:25;33.63;46.12
69162;DHT22;56269;51.738;21.652;2022-08-19T12:19:53;33.99;46.28
69162;DHT22;56269;51.738;21.652;2022-08-19T12:22:19;34.06;44.59
69162;DHT22;56269;51.738;21.652;2022-08-19T12:24:46;34.11;45.31
69162;DHT22;56269;51.738;21.652;2022-08-19T12:27:13;33.63;45.28
69162;DHT22;56269;51.738;21.652;2022-08-19T12:29:39;33.52;46.25
69162;DHT22;56269;51.738;21.652;2022-08-19T12:32:05;33.49;46.17
69162;DHT22;56269;51.738;21.652;2022-08-19T12:34:32;33.41;45.71
69162;DHT22;56269;51.738;21.652;2022-08-19T12:37:00;33.48;44.44
69162;DHT22;56269;51.738;21.652;2022-08-19T12:39:27;33.26;44.54
69162;DHT22;56269;51.738;21.652;2022-08-19T12:41:53;32.98;44.74
69162;DHT22;56269;51.738;21.652;2022-08-19T12:44:19;33.02;45.40
69162;DHT22;56269;51.738;21.652;2022-08-19T12:46:46;33.33;44.36
69162;DHT22;56269;51.738;21.652;2022-08-19T12:49:13;33.60;44.41
69162;DHT22;56269;51.738;21.652;2022-08-19T12:51:39;33.86;45.72
69162;DHT22;56269;51.738;21.652;2022-08-19T12:54:04;33.66;43.74
69162;DHT22;56269;51.738;21.652;2022-08-19T12:56:31;33.77;43.55
69162;DHT22;56269;51.738;21.652;2022-08-19T12:58:57;33.52;44.13
69162;DHT22;56269;51.738;21.652;2022-08-19T13:01:23;33.70;44.98
69162;DHT22;56269;51.738;21.652;2022-08-19T13:03:50;33.48;44.71
69162;DHT22;56269;51.738;21.652;2022-08-19T13:06:17;33.22;44.56
69162;DHT22;56269;51.738;21.652;2022-08-19T13:08:43;33.26;45.71
69162;DHT22;56269;51.738;21.652;2022-08-19T13:11:15;33.42;47.26
69162;DHT22;56269;51.738;21.652;2022-08-19T13:13:45;33.26;44.50
69162;DHT22;56269;51.738;21.652;2022-08-19T13:16:14;33.25;45.06
69162;DHT22;56269;51.738;21.652;2022-08-19T13:18:41;33.70;46.23
69162;DHT22;56269;51.738;21.652;2022-08-19T13:21:09;33.70;44.48
69162;DHT22;56269;51.738;21.652;2022-08-19T13:23:51;33.80;45.52
69162;DHT22;56269;51.738;21.652;2022-08-19T13:26:18;33.89;43.84
69162;DHT22;56269;51.738;21.652;2022-08-19T13:28:45;33.63;43.61
69162;DHT22;56269;51.738;21.652;2022-08-19T13:31:33;33.49;43.82
69162;DHT22;56269;51.738;21.652;2022-08-19T13:34:25;33.41;44.45
69162;DHT22;56269;51.738;21.652;2022-08-19T13:36:52;33.39;44.67
69162;DHT22;56269;51.738;21.652;2022-08-19T13:39:19;33.18;45.47
69162;DHT22;56269;51.738;21.652;2022-08-19T13:41:46;32.98;45.97
69162;DHT22;56269;51.738;21.652;2022-08-19T13:44:15;33.04;46.55
69162;DHT22;56269;51.738;21.652;2022-08-19T13:46:41;33.12;46.74
69162;DHT22;56269;51.738;21.652;2022-08-19T13:49:13;32.98;46.46
69162;DHT22;56269;51.738;21.652;2022-08-19T13:51:41;33.14;47.08
69162;DHT22;56269;51.738;21.652;2022-08-19T13:54:09;32.85;46.23
69162;DHT22;56269;51.738;21.652;2022-08-19T13:56:40;33.23;47.54
69162;DHT22;56269;51.738;21.652;2022-08-19T13:59:06;33.32;45.82
69162;DHT22;56269;51.738;21.652;2022-08-19T14:01:32;33.14;47.30
69162;DHT22;56269;51.738;21.652;2022-08-19T14:03:58;33.11;46.21
69162;DHT22;56269;51.738;21.652;2022-08-19T14:06:24;32.82;46.77
69162;DHT22;56269;51.738;21.652;2022-08-19T14:08:51;32.80;46.77
69162;DHT22;56269;51.738;21.652;2022-08-19T14:11:18;32.99;46.79
69162;DHT22;56269;51.738;21.652;2022-08-19T14:13:44;33.04;47.11
69162;DHT22;56269;51.738;21.652;2022-08-19T14:16:12;32.97;46.55
69162;DHT22;56269;51.738;21.652;2022-08-19T14:18:39;32.97;45.98
69162;DHT22;56269;51.738;21.652;2022-08-19T14:21:06;32.95;46.24
69162;DHT22;56269;51.738;21.652;2022-08-19T14:23:35;32.94;47.58
69162;DHT22;56269;51.738;21.652;2022-08-19T14:26:09;33.09;46.56
69162;DHT22;56269;51.738;21.652;2022-08-19T14:28:38;32.95;46.97
69162;DHT22;56269;51.738;21.652;2022-08-19T14:31:08;33.09;47.05
69162;DHT22;56269;51.738;21.652;2022-08-19T14:33:34;33.02;46.36
69162;DHT22;56269;51.738;21.652;2022-08-19T14:36:00;32.81;46.23
69162;DHT22;56269;51.738;21.652;2022-08-19T14:38:27;32.74;46.51
69162;DHT22;56269;51.738;21.652;2022-08-19T14:41:07;32.57;46.55
69162;DHT22;56269;51.738;21.652;2022-08-19T14:43:34;32.51;47.27
69162;DHT22;56269;51.738;21.652;2022-08-19T14:46:00;32.45;47.60
69162;DHT22;56269;51.738;21.652;2022-08-19T14:48:26;32.51;48.80
69162;DHT22;56269;51.738;21.652;2022-08-19T14:50:52;32.47;47.99
69162;DHT22;56269;51.738;21.652;2022-08-19T14:53:18;32.26;48.78
69162;DHT22;56269;51.738;21.652;2022-08-19T14:55:45;32.24;50.01
69162;DHT22;56269;51.738;21.652;2022-08-19T14:58:12;32.23;49.87
69162;DHT22;56269;51.738;21.652;2022-08-19T15:00:38;31.94;50.52
69162;DHT22;56269;51.738;21.652;2022-08-19T15:03:04;31.82;49.65
69162;DHT22;56269;51.738;21.652;2022-08-19T15:05:30;31.58;50.31
69162;DHT22;56269;51.738;21.652;2022-08-19T15:07:57;31.61;50.19
69162;DHT22;56269;51.738;21.652;2022-08-19T15:10:23;31.70;51.10
69162;DHT22;56269;51.738;21.652;2022-08-19T15:12:50;31.70;51.61
69162;DHT22;56269;51.738;21.652;2022-08-19T15:15:16;31.73;52.51
69162;DHT22;56269;51.738;21.652;2022-08-19T15:17:45;31.45;50.44
69162;DHT22;56269;51.738;21.652;2022-08-19T15:20:16;31.43;50.69
69162;DHT22;56269;51.738;21.652;2022-08-19T15:22:43;31.41;50.95
69162;DHT22;56269;51.738;21.652;2022-08-19T15:25:12;31.45;50.79
69162;DHT22;56269;51.738;21.652;2022-08-19T15:27:38;31.50;51.49
69162;DHT22;56269;51.738;21.652;2022-08-19T15:30:07;31.38;51.37
69162;DHT22;56269;51.738;21.652;2022-08-19T15:32:34;31.25;51.85
69162;DHT22;56269;51.738;21.652;2022-08-19T15:35:02;31.27;51.30